Kirishima Maru No.5 — JD2506 — position and weather

sailwx.info

Track history (hours):
 
Tides and Currents Weather Stations Pressure Air Temp Water Temp Dewpoint Dewpoint Depression Visibility Wind Speed Wind Dir Waves Ship Positions

Kirishima Maru No.5

Last reported at 2017-May-22 19:22 UTC. Time now 2017-May-26 15:03 UTC.
Position N 34°02' E 134°59'.

Length 105 m; draft 5.3 m.

Type: Tanker. MMSI: 431000338.

Date/timePositionNaut miles runAvg speedWind from/ knotsBaromVisibWave heightAir tempDewpointWater temp
2017-May-22 19:22N 34°02' E 134°59'614.0
2017-May-22 18:58N 34°08' E 134°59'1814.3
2017-May-22 17:42N 34°26' E 135°00'314.5
2017-May-22 17:30N 34°28' E 135°01'713.9
2017-May-22 17:00N 34°35' E 135°03'  
2017-May-19 09:41N 34°37' E 134°57'213.0
2017-May-19 09:30N 34°37' E 134°60'612.0
2017-May-19 09:01N 34°34' E 135°05'714.3
2017-May-19 08:30N 34°27' E 135°03'714.1
2017-May-19 08:00N 34°20' E 135°01'713.6
2017-May-19 07:29N 34°13' E 134°59'713.7
2017-May-19 06:58N 34°06' E 134°59'  
2017-May-15 20:17N 34°02' E 134°59'514.8
2017-May-15 19:59N 34°06' E 134°58'714.9
2017-May-15 19:30N 34°14' E 134°58'715.2
2017-May-15 19:00N 34°21' E 134°60'815.2
2017-May-15 18:29N 34°29' E 135°01'714.5
2017-May-15 18:00N 34°36' E 135°03'713.1
2017-May-15 17:30N 34°35' E 134°55'  
2017-May-13 05:10N 34°37' E 135°01'210.0
2017-May-13 04:59N 34°36' E 135°03'510.2
2017-May-13 04:30N 34°32' E 135°05'1713.2
2017-May-13 03:11N 34°15' E 134°59'213.2
2017-May-13 03:00N 34°13' E 134°59'713.4
2017-May-13 02:30N 34°06' E 134°59'  
Track history (hours):
 
Tides and Currents Weather Stations Pressure Air Temp Water Temp Dewpoint Dewpoint Depression Visibility Wind Speed Wind Dir Waves Ship Positions

Kirishima Maru No.5

Last reported at 2017-May-22 19:22 UTC. Time now 2017-May-26 15:03 UTC.
Position N 34°02' E 134°59'.

Length 105 m; draft 5.3 m.

Type: Tanker. MMSI: 431000338.

Date/timePositionNaut miles runAvg speedWind from/ knotsBaromVisibWave heightAir tempDewpointWater temp
2017-May-22 19:22N 34°02' E 134°59'614.0
2017-May-22 18:58N 34°08' E 134°59'1814.3
2017-May-22 17:42N 34°26' E 135°00'314.5
2017-May-22 17:30N 34°28' E 135°01'713.9
2017-May-22 17:00N 34°35' E 135°03'  
2017-May-19 09:41N 34°37' E 134°57'213.0
2017-May-19 09:30N 34°37' E 134°60'612.0
2017-May-19 09:01N 34°34' E 135°05'714.3
2017-May-19 08:30N 34°27' E 135°03'714.1
2017-May-19 08:00N 34°20' E 135°01'713.6
2017-May-19 07:29N 34°13' E 134°59'713.7
2017-May-19 06:58N 34°06' E 134°59'  
2017-May-15 20:17N 34°02' E 134°59'514.8
2017-May-15 19:59N 34°06' E 134°58'714.9
2017-May-15 19:30N 34°14' E 134°58'715.2
2017-May-15 19:00N 34°21' E 134°60'815.2
2017-May-15 18:29N 34°29' E 135°01'714.5
2017-May-15 18:00N 34°36' E 135°03'713.1
2017-May-15 17:30N 34°35' E 134°55'  
2017-May-13 05:10N 34°37' E 135°01'210.0
2017-May-13 04:59N 34°36' E 135°03'510.2
2017-May-13 04:30N 34°32' E 135°05'1713.2
2017-May-13 03:11N 34°15' E 134°59'213.2
2017-May-13 03:00N 34°13' E 134°59'713.4
2017-May-13 02:30N 34°06' E 134°59'  

Dump ship's entire track history